createdAt,value
2023-01-27T00:01:04.923Z,12.45
2023-01-27T00:03:31.145Z,12.68
2023-01-27T00:05:57.345Z,14.48
2023-01-27T00:08:23.510Z,12.95
2023-01-27T00:10:49.671Z,13.98
2023-01-27T00:13:15.843Z,13.05
2023-01-27T00:15:42.091Z,13.05
2023-01-27T00:18:08.285Z,13.32
2023-01-27T00:20:34.458Z,12.30
2023-01-27T00:23:00.626Z,13.82
2023-01-27T00:25:26.798Z,11.85
2023-01-27T00:27:53.011Z,12.77
2023-01-27T00:30:19.168Z,13.52
2023-01-27T00:32:45.363Z,14.23
2023-01-27T00:35:11.504Z,12.60
2023-01-27T00:37:37.693Z,12.98
2023-01-27T00:40:03.873Z,12.73
2023-01-27T00:42:30.040Z,12.85
2023-01-27T00:44:56.220Z,12.60
2023-01-27T00:47:22.408Z,13.73
2023-01-27T00:49:48.532Z,13.25
2023-01-27T00:52:14.675Z,13.73
2023-01-27T00:54:40.857Z,13.10
2023-01-27T00:57:07.061Z,13.60
2023-01-27T00:59:33.180Z,13.15
2023-01-27T01:01:59.384Z,14.20
2023-01-27T01:04:25.539Z,12.40
2023-01-27T01:06:51.695Z,12.27
2023-01-27T01:09:17.917Z,13.60
2023-01-27T01:11:44.152Z,12.95
2023-01-27T01:14:10.310Z,12.63
2023-01-27T01:16:36.498Z,12.75
2023-01-27T01:19:02.692Z,13.90
2023-01-27T01:21:28.858Z,11.50
2023-01-27T01:23:55.090Z,12.13
2023-01-27T01:26:21.302Z,13.93
2023-01-27T01:28:47.469Z,12.93
2023-01-27T01:31:13.701Z,13.98
2023-01-27T01:33:39.878Z,14.15
2023-01-27T01:36:06.000Z,13.00
2023-01-27T01:38:32.154Z,13.80
2023-01-27T01:40:58.349Z,14.30
2023-01-27T01:43:24.545Z,12.90
2023-01-27T01:45:50.753Z,12.57
2023-01-27T01:48:16.875Z,12.60
2023-01-27T01:50:43.049Z,13.38
2023-01-27T01:53:09.232Z,14.60
2023-01-27T01:55:35.440Z,12.88
2023-01-27T01:58:01.628Z,13.23
2023-01-27T02:00:27.830Z,13.82
2023-01-27T02:02:54.010Z,12.80
2023-01-27T02:05:20.301Z,14.45
2023-01-27T02:07:46.528Z,14.30
2023-01-27T02:10:12.994Z,13.55
2023-01-27T02:12:39.350Z,14.40
2023-01-27T02:15:05.516Z,13.60
2023-01-27T02:17:31.672Z,12.80
2023-01-27T02:19:57.838Z,13.90
2023-01-27T02:22:23.994Z,13.00
2023-01-27T02:24:50.135Z,13.40
2023-01-27T02:27:16.343Z,15.05
2023-01-27T02:29:42.497Z,13.15
2023-01-27T02:32:08.687Z,13.25
2023-01-27T02:34:34.820Z,13.45
2023-01-27T02:37:01.026Z,13.93
2023-01-27T02:39:27.192Z,13.07
2023-01-27T02:41:53.320Z,13.82
2023-01-27T02:44:19.505Z,14.00
2023-01-27T02:46:45.621Z,12.82
2023-01-27T02:49:11.790Z,13.65
2023-01-27T02:51:38.020Z,12.73
2023-01-27T02:54:04.179Z,14.05
2023-01-27T02:56:30.308Z,12.55
2023-01-27T02:58:56.553Z,14.30
2023-01-27T03:01:22.738Z,12.93
2023-01-27T03:03:48.931Z,12.68
2023-01-27T03:06:15.131Z,14.13
2023-01-27T03:08:41.317Z,13.68
2023-01-27T03:11:07.463Z,13.27
2023-01-27T03:13:33.660Z,12.23
2023-01-27T03:15:59.857Z,13.88
2023-01-27T03:18:26.032Z,12.23
2023-01-27T03:20:52.229Z,13.38
2023-01-27T03:23:18.550Z,13.13
2023-01-27T03:25:44.686Z,12.65
2023-01-27T03:28:10.926Z,11.10
2023-01-27T03:30:37.271Z,12.20
2023-01-27T03:33:03.510Z,12.55
2023-01-27T03:35:29.640Z,12.30
2023-01-27T03:37:55.829Z,11.95
2023-01-27T03:40:22.007Z,11.55
2023-01-27T03:42:48.325Z,12.43
2023-01-27T03:45:14.787Z,9.93
2023-01-27T03:47:41.027Z,10.02
2023-01-27T03:50:07.208Z,11.70
2023-01-27T03:52:33.396Z,12.50
2023-01-27T03:54:59.551Z,10.68
2023-01-27T03:57:25.740Z,11.85
2023-01-27T03:59:51.945Z,10.98
2023-01-27T04:02:18.131Z,11.85
2023-01-27T04:04:44.324Z,11.55
2023-01-27T04:07:10.542Z,11.57
2023-01-27T04:09:36.727Z,12.68
2023-01-27T04:12:02.884Z,12.40
2023-01-27T04:14:29.128Z,12.18
2023-01-27T04:16:55.279Z,11.02
2023-01-27T04:19:21.447Z,11.95
2023-01-27T04:21:47.591Z,12.73
2023-01-27T04:24:13.775Z,10.63
2023-01-27T04:26:40.009Z,12.05
2023-01-27T04:29:06.144Z,13.45
2023-01-27T04:31:32.456Z,11.57
2023-01-27T04:33:58.820Z,11.63
2023-01-27T04:36:24.968Z,11.13
2023-01-27T04:38:51.148Z,11.75
2023-01-27T04:41:17.278Z,11.57
2023-01-27T04:43:43.447Z,10.45
2023-01-27T04:46:09.691Z,11.45
2023-01-27T04:48:35.952Z,11.38
2023-01-27T04:51:02.159Z,10.57
2023-01-27T04:53:28.320Z,11.82
2023-01-27T04:55:54.451Z,12.00
2023-01-27T04:58:20.594Z,12.00
2023-01-27T05:00:46.903Z,11.07
2023-01-27T05:03:13.096Z,11.07
2023-01-27T05:05:39.303Z,12.32
2023-01-27T05:08:05.435Z,11.85
2023-01-27T05:10:31.611Z,11.98
2023-01-27T05:12:57.834Z,11.30
2023-01-27T05:15:24.704Z,12.02
2023-01-27T05:17:50.941Z,11.32
2023-01-27T05:20:17.151Z,10.57
2023-01-27T05:22:43.287Z,10.55
2023-01-27T05:25:09.466Z,10.45
2023-01-27T05:27:35.819Z,10.57
2023-01-27T05:30:01.998Z,9.55
2023-01-27T05:32:28.147Z,10.20
2023-01-27T05:34:54.270Z,11.32
2023-01-27T05:37:20.404Z,10.15
2023-01-27T05:39:46.602Z,11.65
2023-01-27T05:42:12.786Z,12.00
2023-01-27T05:44:38.992Z,10.95
2023-01-27T05:47:05.122Z,11.07
2023-01-27T05:49:31.248Z,12.10
2023-01-27T05:51:57.437Z,11.30
2023-01-27T05:54:23.621Z,10.15
2023-01-27T05:56:49.785Z,11.15
2023-01-27T05:59:15.915Z,11.65
2023-01-27T06:01:42.068Z,10.48
2023-01-27T06:04:08.234Z,11.25
2023-01-27T06:06:34.406Z,9.93
2023-01-27T06:09:00.634Z,9.60
2023-01-27T06:11:26.825Z,8.85
2023-01-27T06:13:53.047Z,8.95
2023-01-27T06:16:19.256Z,8.55
2023-01-27T06:18:45.455Z,9.43
2023-01-27T06:21:11.572Z,9.27
2023-01-27T06:23:37.839Z,8.93
2023-01-27T06:26:03.996Z,9.25
2023-01-27T06:28:30.369Z,9.30
2023-01-27T06:30:56.626Z,9.32
2023-01-27T06:33:22.820Z,9.52
2023-01-27T06:35:48.999Z,9.57
2023-01-27T06:38:15.129Z,10.35
2023-01-27T06:40:41.306Z,9.75
2023-01-27T06:43:07.509Z,8.75
2023-01-27T06:45:33.726Z,8.25
2023-01-27T06:47:59.953Z,8.98
2023-01-27T06:50:26.088Z,9.57
2023-01-27T06:52:52.265Z,9.73
2023-01-27T06:55:18.477Z,9.15
2023-01-27T06:57:44.614Z,9.10
2023-01-27T07:00:10.785Z,9.80
2023-01-27T07:05:17.051Z,9.70
2023-01-27T07:07:43.251Z,9.82
2023-01-27T07:10:09.460Z,9.43
2023-01-27T07:12:35.577Z,9.63
2023-01-27T07:15:01.702Z,9.00
2023-01-27T07:17:28.113Z,10.10
2023-01-27T07:19:54.269Z,9.10
2023-01-27T07:22:20.417Z,7.70
2023-01-27T07:24:46.595Z,8.00
2023-01-27T07:27:12.744Z,7.72
2023-01-27T07:29:38.945Z,8.98
2023-01-27T07:32:05.189Z,8.15
2023-01-27T07:34:31.366Z,8.13
2023-01-27T07:36:57.577Z,8.07
2023-01-27T07:39:23.717Z,7.30
2023-01-27T07:41:49.924Z,8.10
2023-01-27T07:44:16.103Z,6.38
2023-01-27T07:46:42.322Z,8.32
2023-01-27T07:49:08.531Z,7.82
2023-01-27T07:51:34.698Z,8.30
2023-01-27T07:54:02.152Z,8.27
2023-01-27T07:56:28.404Z,7.65
2023-01-27T07:58:54.549Z,8.38
2023-01-27T08:01:20.771Z,8.98
2023-01-27T08:03:46.983Z,8.48
2023-01-27T08:06:13.187Z,8.65
2023-01-27T08:08:42.141Z,8.50
2023-01-27T08:11:08.362Z,8.32
2023-01-27T08:13:34.530Z,9.23
2023-01-27T08:16:00.677Z,7.30
2023-01-27T08:18:26.869Z,8.40
2023-01-27T08:20:53.035Z,8.98
2023-01-27T08:23:19.166Z,8.45
2023-01-27T08:25:45.367Z,8.85
2023-01-27T08:28:11.489Z,7.93
2023-01-27T08:30:37.686Z,9.18
2023-01-27T08:33:03.856Z,9.02
2023-01-27T08:35:30.089Z,7.97
2023-01-27T08:37:56.295Z,8.57
2023-01-27T08:40:22.511Z,7.78
2023-01-27T08:42:48.738Z,8.23
2023-01-27T08:45:14.913Z,7.55
2023-01-27T08:47:41.135Z,9.27
2023-01-27T08:50:07.330Z,7.97
2023-01-27T08:52:33.549Z,8.30
2023-01-27T08:54:59.756Z,8.15
2023-01-27T08:57:25.971Z,9.07
2023-01-27T08:59:52.165Z,9.30
2023-01-27T09:02:18.371Z,8.43
2023-01-27T09:04:44.631Z,8.07
2023-01-27T09:07:10.942Z,7.65
2023-01-27T09:09:37.117Z,8.23
2023-01-27T09:12:03.287Z,7.47
2023-01-27T09:14:29.482Z,8.30
2023-01-27T09:16:55.648Z,7.78
2023-01-27T09:19:21.782Z,6.88
2023-01-27T09:21:47.974Z,6.60
2023-01-27T09:24:14.131Z,6.35
2023-01-27T09:26:40.332Z,6.97
2023-01-27T09:29:06.518Z,5.80
2023-01-27T09:31:32.721Z,4.97
2023-01-27T09:33:58.948Z,6.18
2023-01-27T09:36:25.142Z,4.30
2023-01-27T09:38:51.288Z,4.57
2023-01-27T09:41:17.435Z,4.78
2023-01-27T09:43:43.592Z,4.35
2023-01-27T09:46:09.794Z,4.65
2023-01-27T09:48:36.094Z,4.03
2023-01-27T09:51:04.114Z,4.65
2023-01-27T09:53:30.397Z,4.00
2023-01-27T09:55:56.556Z,4.93
2023-01-27T09:58:24.660Z,4.22
2023-01-27T10:00:50.963Z,5.18
2023-01-27T10:03:17.159Z,5.65
2023-01-27T10:05:43.356Z,6.07
2023-01-27T10:08:09.504Z,5.75
2023-01-27T10:10:35.689Z,5.00
2023-01-27T10:13:01.931Z,5.75
2023-01-27T10:15:28.091Z,5.05
2023-01-27T10:17:54.247Z,5.43
2023-01-27T10:20:20.521Z,5.82
2023-01-27T10:22:46.698Z,5.13
2023-01-27T10:25:12.906Z,5.80
2023-01-27T10:27:39.090Z,4.72
2023-01-27T10:30:05.293Z,4.63
2023-01-27T10:32:31.442Z,3.80
2023-01-27T10:34:59.775Z,4.50
2023-01-27T10:37:27.077Z,3.20
2023-01-27T10:39:53.261Z,2.33
2023-01-27T10:42:19.447Z,1.45
2023-01-27T10:44:45.587Z,2.60
2023-01-27T10:47:11.741Z,2.80
2023-01-27T10:52:17.963Z,2.17
2023-01-27T10:54:44.121Z,2.85
2023-01-27T10:57:10.280Z,2.50
2023-01-27T10:59:36.421Z,2.33
2023-01-27T11:02:02.640Z,2.58
2023-01-27T11:04:28.902Z,2.10
2023-01-27T11:06:55.093Z,2.70
2023-01-27T11:09:23.650Z,2.90
2023-01-27T11:11:50.055Z,3.22
2023-01-27T11:14:16.309Z,2.33
2023-01-27T11:16:42.488Z,2.60
2023-01-27T11:19:08.661Z,3.60
2023-01-27T11:21:34.855Z,2.58
2023-01-27T11:24:01.072Z,2.63
2023-01-27T11:26:27.309Z,3.25
2023-01-27T11:28:53.479Z,3.60
2023-01-27T11:31:19.741Z,3.05
2023-01-27T11:33:46.042Z,3.03
2023-01-27T11:36:12.252Z,2.97
2023-01-27T11:38:38.450Z,2.95
2023-01-27T11:41:04.615Z,3.25
2023-01-27T11:43:30.837Z,4.18
2023-01-27T11:45:56.996Z,3.70
2023-01-27T11:48:23.688Z,4.65
2023-01-27T11:50:49.935Z,5.13
2023-01-27T11:53:16.089Z,4.15
2023-01-27T11:55:42.220Z,4.00
2023-01-27T11:58:08.421Z,4.10
2023-01-27T12:00:34.567Z,5.00
2023-01-27T12:03:00.746Z,4.25
2023-01-27T12:05:28.080Z,4.82
2023-01-27T12:07:54.239Z,4.63
2023-01-27T12:10:20.730Z,3.92
2023-01-27T12:12:47.036Z,4.20
2023-01-27T12:15:13.201Z,5.40
2023-01-27T12:17:39.323Z,4.88
2023-01-27T12:20:05.566Z,4.85
2023-01-27T12:22:31.812Z,4.88
2023-01-27T12:24:57.941Z,5.05
2023-01-27T12:27:24.072Z,4.97
2023-01-27T12:29:50.302Z,4.93
2023-01-27T12:32:17.104Z,5.55
2023-01-27T12:34:43.301Z,5.05
2023-01-27T12:37:09.509Z,6.43
2023-01-27T12:39:35.854Z,7.55
2023-01-27T12:42:02.130Z,5.03
2023-01-27T12:44:28.327Z,3.40
2023-01-27T12:46:54.536Z,5.07
2023-01-27T12:49:20.730Z,4.63
2023-01-27T12:51:46.853Z,4.22
2023-01-27T12:54:13.154Z,4.88
2023-01-27T12:56:39.334Z,3.85
2023-01-27T12:59:05.538Z,4.03
2023-01-27T13:01:31.706Z,3.90
2023-01-27T13:03:57.876Z,3.80
2023-01-27T13:06:24.120Z,4.07
2023-01-27T13:08:50.281Z,3.80
2023-01-27T13:11:16.684Z,3.67
2023-01-27T13:13:43.023Z,4.65
2023-01-27T13:16:09.396Z,4.28
2023-01-27T13:18:35.715Z,3.00
2023-01-27T13:21:02.109Z,3.78
2023-01-27T13:23:28.416Z,3.22
2023-01-27T13:25:54.728Z,2.80
2023-01-27T13:28:20.899Z,2.65
2023-01-27T13:30:47.207Z,2.60
2023-01-27T13:33:20.818Z,2.97
2023-01-27T13:35:47.025Z,2.88
2023-01-27T13:38:13.316Z,3.17
2023-01-27T13:40:39.522Z,3.08
2023-01-27T13:43:05.705Z,2.53
2023-01-27T13:45:32.046Z,3.20
2023-01-27T13:47:58.413Z,2.90
2023-01-27T13:50:24.551Z,2.30
2023-01-27T13:52:50.719Z,2.75
2023-01-27T13:55:16.873Z,2.95
2023-01-27T13:57:43.027Z,2.47
2023-01-27T14:00:09.234Z,3.17
2023-01-27T14:02:35.416Z,1.98
2023-01-27T14:05:01.697Z,2.35
2023-01-27T14:07:29.230Z,2.55
2023-01-27T14:10:01.506Z,2.47
2023-01-27T14:12:30.728Z,2.00
2023-01-27T14:14:58.737Z,2.20
2023-01-27T14:17:25.147Z,2.10
2023-01-27T14:19:51.379Z,2.33
2023-01-27T14:22:17.585Z,2.60
2023-01-27T14:24:43.944Z,2.45
2023-01-27T14:27:10.132Z,3.03
2023-01-27T14:29:36.357Z,2.30
2023-01-27T14:32:02.665Z,2.78
2023-01-27T14:34:28.927Z,2.40
2023-01-27T14:36:55.163Z,2.08
2023-01-27T14:39:21.344Z,1.73
2023-01-27T14:41:47.551Z,2.20
2023-01-27T14:44:13.754Z,2.17
2023-01-27T14:46:40.132Z,1.92
2023-01-27T14:49:06.352Z,1.90
2023-01-27T14:51:32.562Z,1.65
2023-01-27T14:53:58.789Z,1.80
2023-01-27T14:56:24.972Z,1.70
2023-01-27T14:58:51.181Z,2.30
2023-01-27T15:01:17.396Z,1.50
2023-01-27T15:03:43.549Z,2.00
2023-01-27T15:06:09.756Z,2.28
2023-01-27T15:08:36.007Z,2.78
2023-01-27T15:11:02.199Z,2.95
2023-01-27T15:13:28.383Z,2.13
2023-01-27T15:15:54.662Z,2.10
2023-01-27T15:18:20.873Z,2.45
2023-01-27T15:20:47.060Z,2.50
2023-01-27T15:23:13.189Z,2.55
2023-01-27T15:25:39.375Z,2.40
2023-01-27T15:28:05.532Z,2.17
2023-01-27T15:30:31.743Z,2.90
2023-01-27T15:32:57.901Z,2.40
2023-01-27T15:35:24.127Z,2.88
2023-01-27T15:37:50.300Z,2.70
2023-01-27T15:40:16.566Z,2.53
2023-01-27T15:42:42.847Z,2.70
2023-01-27T15:45:09.002Z,2.67
2023-01-27T15:47:35.208Z,2.80
2023-01-27T15:50:01.399Z,3.50
2023-01-27T15:52:27.559Z,15.23
2023-01-27T15:54:53.731Z,4.35
2023-01-27T15:57:19.922Z,9.45
2023-01-27T15:59:57.135Z,3.50
2023-01-27T16:02:24.890Z,3.40
2023-01-27T16:04:51.119Z,3.50
2023-01-27T16:07:17.291Z,3.13
2023-01-27T16:09:43.472Z,3.42
2023-01-27T16:12:09.647Z,5.00
2023-01-27T16:14:35.857Z,4.18
2023-01-27T16:17:01.994Z,3.45
2023-01-27T16:19:28.134Z,4.30
2023-01-27T16:21:54.379Z,4.43
2023-01-27T16:24:20.668Z,4.03
2023-01-27T16:26:46.819Z,4.82
2023-01-27T16:29:12.985Z,4.90
2023-01-27T16:31:39.243Z,4.40
2023-01-27T16:34:05.433Z,4.78
2023-01-27T16:36:31.591Z,4.35
2023-01-27T16:38:57.767Z,4.03
2023-01-27T16:41:23.920Z,4.40
2023-01-27T16:43:50.091Z,3.97
2023-01-27T16:46:16.310Z,3.75
2023-01-27T16:48:42.517Z,4.63
2023-01-27T16:51:08.647Z,4.30
2023-01-27T16:53:34.922Z,4.57
2023-01-27T16:56:01.187Z,4.95
2023-01-27T16:58:39.712Z,4.78
2023-01-27T17:01:11.166Z,4.07
2023-01-27T17:03:37.385Z,4.25
2023-01-27T17:06:03.555Z,4.68
2023-01-27T17:08:32.832Z,3.83
2023-01-27T17:10:58.973Z,4.30
2023-01-27T17:13:25.227Z,4.07
2023-01-27T17:15:51.393Z,4.07
2023-01-27T17:18:17.542Z,4.43
2023-01-27T17:20:43.769Z,4.00
2023-01-27T17:23:10.077Z,4.10
2023-01-27T17:25:36.297Z,3.80
2023-01-27T17:28:02.493Z,4.20
2023-01-27T17:30:31.416Z,4.05
2023-01-27T17:32:57.623Z,3.80
2023-01-27T17:35:23.836Z,3.58
2023-01-27T17:37:49.993Z,3.60
2023-01-27T17:40:16.188Z,3.83
2023-01-27T17:42:42.350Z,4.60
2023-01-27T17:45:08.530Z,4.63
2023-01-27T17:47:34.969Z,4.13
2023-01-27T17:50:01.225Z,3.67
2023-01-27T17:52:27.375Z,4.47
2023-01-27T17:54:53.539Z,4.10
2023-01-27T17:57:21.280Z,4.13
2023-01-27T17:59:47.698Z,3.85
2023-01-27T18:02:13.868Z,3.85
2023-01-27T18:04:40.076Z,3.35
2023-01-27T18:07:06.291Z,4.00
2023-01-27T18:09:32.479Z,4.28
2023-01-27T18:11:58.862Z,3.90
2023-01-27T18:14:25.060Z,3.80
2023-01-27T18:16:51.205Z,3.70
2023-01-27T18:19:17.394Z,3.80
2023-01-27T18:21:43.596Z,3.42
2023-01-27T18:24:09.875Z,3.65
2023-01-27T18:26:38.744Z,3.40
2023-01-27T18:29:04.965Z,3.67
2023-01-27T18:31:31.325Z,3.33
2023-01-27T18:33:57.500Z,3.10
2023-01-27T18:36:23.634Z,3.00
2023-01-27T18:38:50.753Z,2.63
2023-01-27T18:41:17.056Z,3.20
2023-01-27T18:43:46.419Z,2.90
2023-01-27T18:46:12.797Z,2.97
2023-01-27T18:48:40.116Z,3.05
2023-01-27T18:51:06.428Z,3.10
2023-01-27T18:53:32.622Z,3.10
2023-01-27T18:55:58.859Z,3.58
2023-01-27T18:58:25.180Z,2.83
2023-01-27T19:00:51.429Z,3.10
2023-01-27T19:03:17.747Z,3.17
2023-01-27T19:05:44.144Z,3.53
2023-01-27T19:08:10.366Z,4.07
2023-01-27T19:10:36.561Z,2.83
2023-01-27T19:13:02.734Z,3.67
2023-01-27T19:15:29.983Z,3.40
2023-01-27T19:17:56.150Z,2.70
2023-01-27T19:20:22.359Z,2.63
2023-01-27T19:22:48.544Z,2.85
2023-01-27T19:25:15.130Z,2.80
2023-01-27T19:27:41.567Z,2.33
2023-01-27T19:30:07.771Z,2.90
2023-01-27T19:32:34.016Z,2.25
2023-01-27T19:35:00.169Z,3.00
2023-01-27T19:37:26.408Z,2.63
2023-01-27T19:39:52.537Z,1.95
2023-01-27T19:42:18.718Z,2.42
2023-01-27T19:44:44.931Z,2.58
2023-01-27T19:47:11.128Z,2.90
2023-01-27T19:49:37.307Z,2.85
2023-01-27T19:52:03.575Z,2.83
2023-01-27T19:54:29.752Z,2.40
2023-01-27T19:56:55.889Z,2.72
2023-01-27T19:59:22.086Z,2.50
2023-01-27T20:01:48.255Z,2.63
2023-01-27T20:04:19.383Z,2.95
2023-01-27T20:06:45.683Z,2.58
2023-01-27T20:09:11.819Z,2.38
2023-01-27T20:11:38.048Z,3.45
2023-01-27T20:14:04.269Z,3.30
2023-01-27T20:16:30.517Z,3.05
2023-01-27T20:18:56.809Z,3.30
2023-01-27T20:21:23.005Z,3.17
2023-01-27T20:23:49.186Z,3.65
2023-01-27T20:26:15.539Z,2.88
2023-01-27T20:28:41.739Z,3.33
2023-01-27T20:31:07.922Z,3.35
2023-01-27T20:33:34.149Z,3.05
2023-01-27T20:36:00.310Z,3.50
2023-01-27T20:38:26.493Z,3.70
2023-01-27T20:40:52.663Z,3.13
2023-01-27T20:43:33.717Z,3.38
2023-01-27T20:46:01.188Z,3.58
2023-01-27T20:48:27.398Z,3.42
2023-01-27T20:50:53.585Z,3.20
2023-01-27T20:53:19.763Z,3.67
2023-01-27T20:55:46.242Z,4.28
2023-01-27T20:58:12.451Z,3.83
2023-01-27T21:00:38.619Z,3.40
2023-01-27T21:03:04.823Z,3.47
2023-01-27T21:05:30.987Z,3.25
2023-01-27T21:07:57.292Z,3.45
2023-01-27T21:10:23.607Z,3.47
2023-01-27T21:12:49.769Z,3.53
2023-01-27T21:15:16.436Z,4.53
2023-01-27T21:17:42.842Z,3.22
2023-01-27T21:20:09.025Z,3.75
2023-01-27T21:22:35.235Z,3.72
2023-01-27T21:25:01.369Z,3.53
2023-01-27T21:27:27.533Z,3.67
2023-01-27T21:29:53.721Z,3.45
2023-01-27T21:32:19.959Z,3.70
2023-01-27T21:34:46.119Z,3.45
2023-01-27T21:37:12.338Z,2.90
2023-01-27T21:39:38.541Z,3.72
2023-01-27T21:42:04.716Z,3.55
2023-01-27T21:44:30.887Z,3.80
2023-01-27T21:46:57.048Z,3.40
2023-01-27T21:49:23.340Z,3.88
2023-01-27T21:51:50.299Z,3.40
2023-01-27T21:54:16.514Z,3.85
2023-01-27T21:56:42.695Z,2.75
2023-01-27T21:59:08.865Z,3.35
2023-01-27T22:01:35.143Z,3.60
2023-01-27T22:04:01.360Z,3.50
2023-01-27T22:06:27.578Z,3.78
2023-01-27T22:08:53.781Z,3.42
2023-01-27T22:11:19.981Z,3.85
2023-01-27T22:13:46.122Z,4.10
2023-01-27T22:16:12.330Z,4.40
2023-01-27T22:18:38.583Z,3.97
2023-01-27T22:21:04.735Z,3.33
2023-01-27T22:23:30.978Z,3.20
2023-01-27T22:25:57.207Z,3.00
2023-01-27T22:28:23.369Z,4.05
2023-01-27T22:30:49.612Z,3.20
2023-01-27T22:33:15.793Z,3.97
2023-01-27T22:35:41.970Z,3.55
2023-01-27T22:38:08.198Z,3.30
2023-01-27T22:40:34.381Z,3.65
2023-01-27T22:43:00.594Z,3.85
2023-01-27T22:45:26.796Z,3.90
2023-01-27T22:47:52.975Z,4.35
2023-01-27T22:50:19.116Z,3.97
2023-01-27T22:52:45.291Z,3.50
2023-01-27T22:55:11.455Z,3.28
2023-01-27T22:57:37.626Z,3.65
2023-01-27T23:00:03.926Z,3.60
2023-01-27T23:02:30.283Z,3.65
2023-01-27T23:04:56.432Z,3.28
2023-01-27T23:07:22.612Z,4.15
2023-01-27T23:09:48.786Z,3.78
2023-01-27T23:12:14.942Z,3.25
2023-01-27T23:14:41.098Z,3.15
2023-01-27T23:17:07.247Z,3.65
2023-01-27T23:19:33.432Z,3.85
2023-01-27T23:21:59.663Z,3.63
2023-01-27T23:24:25.985Z,3.85
2023-01-27T23:26:52.185Z,3.33
2023-01-27T23:29:24.555Z,3.65
2023-01-27T23:31:51.171Z,4.25
2023-01-27T23:34:17.401Z,3.63
2023-01-27T23:36:43.549Z,3.85
2023-01-27T23:39:09.676Z,3.40
2023-01-27T23:41:35.797Z,3.13
2023-01-27T23:44:01.993Z,3.45
2023-01-27T23:46:28.234Z,3.38
2023-01-27T23:48:54.456Z,3.78
2023-01-27T23:51:20.644Z,3.20
2023-01-27T23:53:46.827Z,3.20
2023-01-27T23:56:12.960Z,3.20
2023-01-27T23:58:39.116Z,3.08
